Aviation Digital Data Service (ADDS)

Output produced by METARs form (0719 UTC 30 August 2016)
found at http://aviationweather.gov/adds/metars/
 
KART 300521Z 3006/3106 VRB03KT P6SM SKC 
     TEMPO 3007/3011 2SM BR SCT007 
     FM301200 19004KT P6SM SCT130 
     FM301500 22008KT P6SM SCT130 
     FM310200 19005KT P6SM BKN100 
     FM310400 19006KT P6SM BKN070